Barlow, Oregon
Current Conditions -  °F | °C
As of 5:53 PM on Tuesday 25 Nov 2014 (Local Time) from KUAO Reporting Station
Overcast Overcast  
Wind Chill: 58°   Ceiling: 6000
Heat Index: 58°   Visibility: 10mi
Dew Point: 54°   Wind: 7mph
Humidity: 87%   Direction: 180°S
Pressure: 30.33"   Gusts: NA
Location:  45.2216°N, 122.669°W
Report Text: KUAO 260153Z AUTO 18006KT 10SM OVC060 14/12 A3033 RMK AO2 SLP269 T01440122
Loading
Personal Weather Stations






























Interactive Weather Map New forecast layout! Learn more

10-Day Weather Forecast

Advertisements
Track Severe Weather on mobile